Decoded Metar for UARR (URALSK in KAZAKHSTAN) (IATA:URA) | Meteo·Mobile Aviation Weather
aviador You're here:

UARR Decoded Metar

URALSK in KAZAKHSTAN
Report Time2019-10-22 13:30:00
UTC Time2019-10-22 13:50:11
Flight Rules vfr VFR
Wind210° at 6 kt
W.Decomp.*RWY 22: 5.7 kt HW 1.9 kt LCW
Visibility9999 m
Phenomena:N/A
Clouds:Broken CB 034 Hf
Overcast 076 Hf
Expected CloudBase > 1,200 ft AGL from Temp-Dew spread
Ceiling3,400 ft
Temp11°C (ISA -4)
Dew Point08°C (82% RH)
AAT8.4°C
QNH1021 hPa
Density Alt-449 ft
Elevation125 ft
Report Wrong Elevation
Raw Report
UARR 221330Z 21003MPS 9999 BKN034CB OVC076 11/08 Q1021 R22/190060
NOSIG RMK QFE762/1017=

Extra information for UARR:More info

Metar Taf Metar & Taf Last 4 Metars F.Rules Stats Wind Profile Meteogram Temp Stats Airport Information Weather charts Add Link Nearby VenuesMetar ALERT Operation Metar Decoded Social comments